createdAt,value
2017-05-26T00:14:47.000Z,15.2
2017-05-26T00:31:29.000Z,14.9
2017-05-26T00:48:11.000Z,14.6
2017-05-26T01:04:54.000Z,14.6
2017-05-26T01:21:36.000Z,14.2
2017-05-26T01:38:18.000Z,14.2
2017-05-26T01:55:00.000Z,14.2
2017-05-26T02:11:42.000Z,13.9
2017-05-26T02:28:24.000Z,13.9
2017-05-26T02:45:06.000Z,13.9
2017-05-26T03:01:47.000Z,13.6
2017-05-26T03:18:28.000Z,13.3
2017-05-26T03:35:09.000Z,13
2017-05-26T03:51:50.000Z,13.3
2017-05-26T04:08:31.000Z,13.3
2017-05-26T04:25:13.000Z,13.6
2017-05-26T04:41:54.000Z,13.6
2017-05-26T04:58:36.000Z,13.9
2017-05-26T05:08:37.000Z,14.6
2017-05-26T05:25:20.000Z,14.9
2017-05-26T05:38:42.000Z,15.5
2017-05-26T05:52:04.000Z,16.2
2017-05-26T06:05:27.000Z,16.8
2017-05-26T06:18:51.000Z,17.4
2017-05-26T06:35:35.000Z,18.1
2017-05-26T06:42:18.000Z,18.7
2017-05-26T06:59:03.000Z,19.4
2017-05-26T07:12:29.000Z,20
2017-05-26T07:29:16.000Z,20
2017-05-26T07:46:02.000Z,20
2017-05-26T08:02:50.000Z,20.3
2017-05-26T08:19:37.000Z,20.6
2017-05-26T08:36:25.000Z,21
2017-05-26T08:49:51.000Z,21.3
2017-05-26T09:06:39.000Z,21.6
2017-05-26T09:23:27.000Z,21.9
2017-05-26T09:40:16.000Z,22.2
2017-05-26T09:57:06.000Z,22.2
2017-05-26T10:13:55.000Z,22.6
2017-05-26T10:27:23.000Z,23.2
2017-05-26T10:44:13.000Z,23.8
2017-05-26T11:01:03.000Z,24.2
2017-05-26T11:17:54.000Z,24.5
2017-05-26T11:34:46.000Z,24.8
2017-05-26T11:51:38.000Z,25.1
2017-05-26T11:58:22.000Z,25.1
2017-05-26T12:01:44.000Z,25.1
2017-05-26T12:18:37.000Z,25.4
2017-05-26T12:25:21.000Z,25.4
2017-05-26T12:42:13.000Z,25.1
2017-05-26T12:52:21.000Z,25.8
2017-05-26T12:55:43.000Z,26.1
2017-05-26T13:12:36.000Z,25.8
2017-05-26T13:29:28.000Z,25.8
2017-05-26T13:39:36.000Z,26.1
2017-05-26T13:46:21.000Z,25.8
2017-05-26T14:03:13.000Z,26.4
2017-05-26T14:20:06.000Z,26.1
2017-05-26T14:36:59.000Z,26.1
2017-05-26T14:40:21.000Z,26.1
2017-05-26T15:14:07.000Z,26.4
2017-05-26T15:30:59.000Z,26.4
2017-05-26T15:47:53.000Z,26.4
2017-05-26T16:04:46.000Z,26.7
2017-05-26T16:21:39.000Z,27
2017-05-26T16:30:07.000Z,27.7
2017-05-26T16:35:11.000Z,28.3
2017-05-26T16:52:07.000Z,28.3
2017-05-26T16:58:54.000Z,29
2017-05-26T17:15:51.000Z,28.6
2017-05-26T17:32:47.000Z,28
2017-05-26T17:36:11.000Z,27.4
2017-05-26T17:49:42.000Z,26.7
2017-05-26T17:54:46.000Z,26.1
2017-05-26T18:01:32.000Z,25.4
2017-05-26T18:08:16.000Z,24.8
2017-05-26T18:21:45.000Z,24.2
2017-05-26T18:38:35.000Z,23.8
2017-05-26T18:55:25.000Z,23.2
2017-05-26T19:12:16.000Z,22.9
2017-05-26T19:29:05.000Z,22.6
2017-05-26T19:42:32.000Z,21.9
2017-05-26T19:59:21.000Z,21.6
2017-05-26T20:16:09.000Z,21.3
2017-05-26T20:32:56.000Z,21
2017-05-26T20:49:45.000Z,20.6
2017-05-26T21:06:32.000Z,20.3
2017-05-26T21:23:18.000Z,20
2017-05-26T21:40:05.000Z,19.7
2017-05-26T21:56:52.000Z,19.4
2017-05-26T22:13:38.000Z,19
2017-05-26T22:30:24.000Z,18.7
2017-05-26T22:47:09.000Z,18.4
2017-05-26T23:03:54.000Z,18.4
2017-05-26T23:20:40.000Z,18.1
2017-05-26T23:37:25.000Z,17.8
2017-05-26T23:54:10.000Z,17.8
